Portada
METAR-TAF:

METAR-TAF

Aeropuertos :

Halmstad, Suecia

latitud: 56-41N, longitud: 012-50E, altitud: 30 m

Observación

El informe se hizo hace 36 minutos, a las 17:50 UTC
Viento 7 kt del sureste
Temperatura 5°C
Humedad 87%
Presión 1001 hPa
Visibilidad 10 km o más
Escasas nubes a una altura de 1000 ft

METAR: ESMT 131750Z 14007KT 9999 FEW010 05/03 Q1001

Hora: 19:26 (18:26 UTC)

Pronóstico

El informe se hizo hace 1 hora y 19 minutos, a las 17:07 UTC
Pronóstico válido del 13 a las 18 UTC al 13 a las 22 UTC
Viento 8 kt del sureste
Visibilidad 10 km o más
Nubes dispersas a una altura de 2000 ft

TAF: ESMT 131707Z 1318/1322 13008KT 9999 SCT020

Observaciones y pronósticos meteorológicos de más de 4000 aeropuertos (mensajes METAR y TAF).

Los puntos amarillos y rojos representan las estaciones disponibles.

Ponga el ratón en el punto deseado para ver el nombre de la estación.

Haga clic para ver las observaciones y los pronósticos meteorológicos.

Para cambiar el mapa : haga clic en los botones verdes con una cruz de color negro para hacer un zoom, en el botón verde con un guión para alejar o en las flechas verdes para mapas adyacentes.


METAR-TAF: